Time;durP1;ratioP1;P1;durP2;ratioP2;P2;SDS_P1;SDS_P2;PMS_P1;PMS_P2;Temp;Humidity;BMP_temperature;BMP_pressure;BME280_temperature;BME280_humidity;BME280_pressure;Samples;Min_cycle;Max_cycle;Signal;HPM_P1;HPM_P2
2023/07/19 00:00:36;;;;;;;2.15;0.98;;;20.40;62.60;;;;;;5023183;28;20034;-21
2023/07/19 00:03:02;;;;;;;1.37;1.10;;;20.40;62.80;;;;;;5016829;28;20260;-21
2023/07/19 00:05:28;;;;;;;1.23;0.90;;;20.30;63.00;;;;;;5023932;28;20021;-20
2023/07/19 00:07:54;;;;;;;1.85;1.00;;;20.30;63.10;;;;;;5024230;28;20225;-21
2023/07/19 00:10:20;;;;;;;2.07;1.03;;;20.30;63.20;;;;;;5024227;28;20601;-20
2023/07/19 00:12:45;;;;;;;1.43;0.90;;;20.20;63.30;;;;;;4988351;28;20689;-22
2023/07/19 00:15:11;;;;;;;1.97;1.00;;;20.20;63.30;;;;;;5027441;28;20021;-19
2023/07/19 00:17:37;;;;;;;2.30;1.13;;;20.10;63.50;;;;;;5030219;28;20789;-20
2023/07/19 00:20:04;;;;;;;1.80;1.00;;;20.10;63.80;;;;;;5025798;28;20124;-20
2023/07/19 00:22:32;;;;;;;2.22;1.00;;;20.10;63.80;;;;;;5013667;28;20029;-21
2023/07/19 00:24:57;;;;;;;3.83;1.20;;;20.00;64.00;;;;;;5025535;28;20276;-19
2023/07/19 00:27:24;;;;;;;1.23;0.95;;;20.00;64.00;;;;;;5014812;28;20079;-18
2023/07/19 00:29:50;;;;;;;2.25;0.93;;;19.90;63.90;;;;;;5000235;28;20032;-20
2023/07/19 00:32:16;;;;;;;1.40;0.83;;;19.90;64.00;;;;;;5046450;28;20291;-20
2023/07/19 00:34:42;;;;;;;2.25;1.00;;;19.90;64.10;;;;;;5041193;28;20316;-20
2023/07/19 00:37:08;;;;;;;2.20;1.00;;;19.80;64.30;;;;;;5018357;28;20624;-21
2023/07/19 00:39:33;;;;;;;2.43;1.00;;;19.80;64.40;;;;;;5065493;28;20075;-24
2023/07/19 00:41:59;;;;;;;1.38;1.02;;;19.70;64.40;;;;;;5011078;28;20268;-19
2023/07/19 00:44:25;;;;;;;1.47;1.00;;;19.70;64.50;;;;;;4990837;28;20022;-20
2023/07/19 00:46:51;;;;;;;1.20;1.00;;;19.70;64.70;;;;;;5026080;28;20374;-21
2023/07/19 00:49:17;;;;;;;1.88;1.00;;;19.70;65.00;;;;;;5028813;28;20033;-20
2023/07/19 00:51:43;;;;;;;1.50;1.10;;;19.70;65.20;;;;;;5032655;28;20033;-22
2023/07/19 00:54:09;;;;;;;2.10;1.00;;;19.60;65.10;;;;;;5014171;28;20033;-20
2023/07/19 00:56:36;;;;;;;1.55;1.00;;;19.60;65.10;;;;;;5050328;28;20090;-20
2023/07/19 00:59:02;;;;;;;1.65;1.15;;;19.60;65.30;;;;;;5048570;28;20714;-20
2023/07/19 01:01:28;;;;;;;2.03;0.90;;;19.60;65.40;;;;;;5006652;28;20030;-20
2023/07/19 01:03:54;;;;;;;1.60;1.10;;;19.60;65.40;;;;;;5028649;28;20555;-21
2023/07/19 01:06:20;;;;;;;1.77;0.90;;;19.50;65.40;;;;;;5029885;28;20017;-20
2023/07/19 01:08:47;;;;;;;3.00;1.10;;;19.50;65.60;;;;;;5010226;28;20056;-20
2023/07/19 01:11:13;;;;;;;1.88;1.00;;;19.50;65.80;;;;;;5029516;28;20137;-20
2023/07/19 01:13:50;;;;;;;1.20;1.00;;;19.50;65.90;;;;;;5039704;28;20036;-22
2023/07/19 01:16:16;;;;;;;1.65;1.02;;;19.50;67.30;;;;;;5007505;28;20165;-20
2023/07/19 01:18:41;;;;;;;2.37;1.10;;;19.50;66.20;;;;;;5030940;28;20541;-23
2023/07/19 01:21:07;;;;;;;2.33;1.10;;;19.40;66.30;;;;;;5031564;28;20524;-21
2023/07/19 01:23:33;;;;;;;1.50;1.17;;;19.40;66.30;;;;;;5028746;28;20034;-21
2023/07/19 01:25:58;;;;;;;2.33;1.10;;;19.40;66.50;;;;;;5020123;28;20148;-21
2023/07/19 01:28:24;;;;;;;1.80;1.20;;;19.40;66.50;;;;;;5025410;28;20598;-20
2023/07/19 01:30:53;;;;;;;1.70;1.05;;;19.40;66.60;;;;;;5017398;28;20094;-19
2023/07/19 01:33:18;;;;;;;1.50;1.10;;;19.40;67.00;;;;;;5016140;28;20037;-21
2023/07/19 01:35:44;;;;;;;1.20;1.10;;;19.30;66.50;;;;;;5010342;28;20037;-24
2023/07/19 01:38:10;;;;;;;3.42;1.30;;;19.30;66.60;;;;;;5033408;28;20029;-20
2023/07/19 01:40:36;;;;;;;1.40;1.30;;;19.30;66.70;;;;;;5007527;28;20021;-21
2023/07/19 01:43:02;;;;;;;1.50;1.20;;;19.30;66.70;;;;;;5032383;28;20283;-18
2023/07/19 01:45:27;;;;;;;2.00;1.20;;;19.20;66.80;;;;;;5025184;28;20036;-21
2023/07/19 01:47:53;;;;;;;2.50;1.20;;;19.20;66.80;;;;;;4989023;28;20261;-21
2023/07/19 01:50:19;;;;;;;3.03;1.20;;;19.20;67.00;;;;;;5034052;28;20462;-19
2023/07/19 01:52:45;;;;;;;1.67;1.03;;;19.10;67.10;;;;;;5030152;28;20213;-21
2023/07/19 01:55:10;;;;;;;1.85;1.10;;;19.10;67.20;;;;;;5059259;28;20064;-20
2023/07/19 01:57:36;;;;;;;2.60;1.10;;;19.00;67.20;;;;;;5015278;28;20151;-23
2023/07/19 02:00:03;;;;;;;1.45;1.10;;;19.00;67.40;;;;;;5025222;28;20302;-19
2023/07/19 02:02:29;;;;;;;2.07;1.20;;;19.00;67.60;;;;;;5010765;28;20018;-20
2023/07/19 02:04:55;;;;;;;2.58;1.10;;;18.90;67.60;;;;;;4999836;28;20436;-23
2023/07/19 02:07:21;;;;;;;1.50;1.20;;;18.90;67.60;;;;;;5025155;28;20891;-22
2023/07/19 02:09:46;;;;;;;1.60;1.20;;;18.90;67.70;;;;;;5012235;28;20615;-20
2023/07/19 02:12:12;;;;;;;2.37;1.20;;;18.90;67.90;;;;;;5013199;28;20676;-20
2023/07/19 02:14:38;;;;;;;2.20;1.40;;;18.80;68.00;;;;;;5019626;28;20374;-21
2023/07/19 02:17:04;;;;;;;2.03;1.20;;;18.80;68.00;;;;;;5017123;28;20127;-19
2023/07/19 02:19:30;;;;;;;1.50;1.20;;;18.80;68.10;;;;;;4995818;28;20400;-20
2023/07/19 02:21:55;;;;;;;2.07;1.00;;;18.80;68.20;;;;;;5025767;28;20036;-19
2023/07/19 02:24:21;;;;;;;2.35;1.30;;;18.80;68.20;;;;;;5023287;28;20116;-19
2023/07/19 02:26:47;;;;;;;2.17;1.10;;;18.80;68.30;;;;;;5002112;28;20048;-19
2023/07/19 02:29:13;;;;;;;1.40;1.13;;;18.70;68.40;;;;;;5042778;28;20028;-21
2023/07/19 02:31:39;;;;;;;1.87;1.40;;;18.70;68.50;;;;;;5020168;28;20033;-22
2023/07/19 02:34:09;;;;;;;2.05;1.30;;;18.70;68.70;;;;;;5038495;28;20020;-21
2023/07/19 02:36:35;;;;;;;2.45;1.20;;;18.60;68.60;;;;;;5033280;28;20234;-21
2023/07/19 02:39:02;;;;;;;1.63;1.17;;;18.60;68.70;;;;;;5005557;28;20566;-21
2023/07/19 02:41:29;;;;;;;2.85;1.27;;;18.60;68.90;;;;;;5017420;28;20320;-20
2023/07/19 02:43:55;;;;;;;1.73;1.17;;;18.60;69.00;;;;;;5015437;28;20499;-20
2023/07/19 02:46:20;;;;;;;1.70;1.20;;;18.60;69.70;;;;;;5018430;28;20043;-19
2023/07/19 02:48:46;;;;;;;1.50;1.00;;;18.60;69.00;;;;;;5037618;28;20028;-21
2023/07/19 02:51:12;;;;;;;1.50;1.20;;;18.60;69.20;;;;;;4998469;28;20060;-24
2023/07/19 02:53:38;;;;;;;1.43;1.20;;;18.50;69.20;;;;;;5026432;28;20044;-19
2023/07/19 02:56:04;;;;;;;1.77;1.20;;;18.60;69.30;;;;;;5040349;28;20098;-21
2023/07/19 02:58:29;;;;;;;2.35;1.30;;;18.50;70.10;;;;;;4983655;28;20603;-22
2023/07/19 03:00:55;;;;;;;2.30;1.20;;;18.50;69.40;;;;;;5024355;28;20048;-21
2023/07/19 03:03:21;;;;;;;1.52;1.20;;;18.50;69.50;;;;;;5011711;28;20048;-22
2023/07/19 03:05:47;;;;;;;2.40;1.20;;;18.50;69.70;;;;;;4990277;28;20474;-19
2023/07/19 03:08:13;;;;;;;2.80;1.30;;;18.50;69.80;;;;;;5027030;28;20060;-21
2023/07/19 03:10:39;;;;;;;1.48;1.20;;;18.50;70.00;;;;;;5021903;28;20123;-20
2023/07/19 03:13:05;;;;;;;1.83;1.10;;;18.50;70.10;;;;;;5018246;28;20144;-20
2023/07/19 03:15:33;;;;;;;1.60;1.10;;;18.50;70.40;;;;;;5014849;28;20138;-22
2023/07/19 03:18:00;;;;;;;1.85;1.20;;;18.50;70.50;;;;;;5018864;28;20471;-19
2023/07/19 03:20:27;;;;;;;2.40;1.30;;;18.50;70.50;;;;;;4986242;28;20032;-22
2023/07/19 03:22:57;;;;;;;2.17;1.42;;;18.60;70.60;;;;;;5022879;28;20036;-19
2023/07/19 03:25:24;;;;;;;1.83;1.20;;;18.60;70.70;;;;;;5022846;28;20239;-22
2023/07/19 03:27:50;;;;;;;1.70;1.30;;;18.60;70.70;;;;;;5022347;28;20032;-20
2023/07/19 03:30:16;;;;;;;2.58;1.30;;;18.60;70.80;;;;;;5015258;28;20036;-21
2023/07/19 03:32:42;;;;;;;2.50;1.30;;;18.60;70.90;;;;;;5037037;28;20131;-20
2023/07/19 03:35:08;;;;;;;1.77;1.20;;;18.60;70.90;;;;;;5027033;28;20099;-20
2023/07/19 03:37:36;;;;;;;2.15;1.30;;;18.60;70.90;;;;;;4998242;28;21567;-19
2023/07/19 03:40:02;;;;;;;2.72;1.50;;;18.70;71.50;;;;;;5028017;28;20108;-19
2023/07/19 03:42:28;;;;;;;2.35;1.40;;;18.70;71.10;;;;;;5025313;28;20217;-21
2023/07/19 03:44:54;;;;;;;1.47;1.20;;;18.70;71.00;;;;;;5037316;28;20040;-21
2023/07/19 03:47:19;;;;;;;2.40;1.20;;;18.70;71.00;;;;;;5011709;28;20372;-21
2023/07/19 03:49:45;;;;;;;1.90;1.30;;;18.70;71.00;;;;;;5022223;28;20411;-19
2023/07/19 03:52:11;;;;;;;2.83;1.52;;;18.70;71.00;;;;;;4994967;28;20036;-20
2023/07/19 03:54:37;;;;;;;1.60;1.33;;;18.70;71.00;;;;;;5030096;28;20029;-19
2023/07/19 03:57:03;;;;;;;1.88;1.40;;;18.70;71.10;;;;;;5032713;28;20247;-19
2023/07/19 03:59:30;;;;;;;3.58;1.40;;;18.70;71.20;;;;;;5047922;28;20336;-21
2023/07/19 04:01:56;;;;;;;2.97;1.50;;;18.60;71.30;;;;;;5015459;28;20067;-20
2023/07/19 04:04:21;;;;;;;2.72;1.40;;;18.60;71.30;;;;;;5022995;28;20029;-21
2023/07/19 04:06:47;;;;;;;2.17;1.30;;;18.60;71.50;;;;;;4999821;28;20521;-19
2023/07/19 04:09:13;;;;;;;1.73;1.20;;;18.60;71.70;;;;;;5031960;28;20041;-21
2023/07/19 04:11:38;;;;;;;2.20;1.20;;;18.60;71.80;;;;;;5025192;28;20335;-23
2023/07/19 04:14:04;;;;;;;1.30;1.17;;;18.70;71.90;;;;;;5029207;28;20033;-20
2023/07/19 04:16:30;;;;;;;1.88;1.30;;;18.70;71.90;;;;;;5003963;28;20025;-19
2023/07/19 04:18:55;;;;;;;2.87;1.23;;;18.70;71.90;;;;;;5024898;28;20049;-22
2023/07/19 04:21:21;;;;;;;1.73;1.30;;;18.70;71.90;;;;;;4987858;28;20515;-21
2023/07/19 04:23:47;;;;;;;2.72;1.30;;;18.70;72.00;;;;;;5026778;28;20725;-20
2023/07/19 04:26:13;;;;;;;2.58;1.30;;;18.70;72.20;;;;;;5023954;28;20955;-21
2023/07/19 04:28:39;;;;;;;1.87;1.40;;;18.70;72.30;;;;;;5023608;28;20407;-20
2023/07/19 04:31:05;;;;;;;2.63;1.20;;;18.80;72.50;;;;;;5003541;28;20461;-20
2023/07/19 04:33:31;;;;;;;2.33;1.17;;;18.80;73.20;;;;;;5013640;28;20032;-21
2023/07/19 04:35:57;;;;;;;2.22;1.20;;;18.80;72.60;;;;;;4992840;28;20424;-22
2023/07/19 04:38:23;;;;;;;2.00;1.17;;;18.80;72.70;;;;;;5020131;28;20043;-20
2023/07/19 04:40:49;;;;;;;1.73;1.30;;;18.80;72.70;;;;;;5023137;28;20051;-21
2023/07/19 04:43:14;;;;;;;1.65;1.40;;;18.90;72.80;;;;;;5023630;28;20695;-20
2023/07/19 04:45:43;;;;;;;3.00;1.27;;;18.90;72.90;;;;;;5023821;28;20473;-20
2023/07/19 04:48:09;;;;;;;2.88;1.40;;;18.90;73.30;;;;;;5011718;28;20447;-19
2023/07/19 04:50:36;;;;;;;2.08;1.20;;;18.90;72.90;;;;;;5013914;28;20029;-21
2023/07/19 04:53:02;;;;;;;1.92;1.40;;;18.90;73.00;;;;;;4990171;28;20116;-22
2023/07/19 04:55:28;;;;;;;2.40;1.30;;;19.00;73.00;;;;;;5022948;28;20476;-21
2023/07/19 04:57:53;;;;;;;1.63;1.30;;;19.00;73.20;;;;;;5021605;28;20091;-21
2023/07/19 05:00:19;;;;;;;3.07;1.30;;;19.10;73.40;;;;;;5022429;28;21811;-22
2023/07/19 05:02:45;;;;;;;1.40;1.20;;;19.10;73.50;;;;;;5019235;28;23900;-20
2023/07/19 05:05:12;;;;;;;2.13;1.33;;;19.20;73.60;;;;;;5025476;28;20025;-20
2023/07/19 05:07:38;;;;;;;2.88;1.30;;;19.20;73.60;;;;;;4985001;28;20437;-23
2023/07/19 05:10:05;;;;;;;2.53;1.30;;;19.20;73.50;;;;;;5032607;28;20017;-19
2023/07/19 05:12:31;;;;;;;2.08;1.38;;;19.30;73.50;;;;;;5027279;28;20296;-21
2023/07/19 05:14:57;;;;;;;2.23;1.47;;;19.30;73.40;;;;;;5027943;28;20029;-21
2023/07/19 05:17:23;;;;;;;1.40;1.05;;;19.40;73.50;;;;;;5040667;28;20879;-21
2023/07/19 05:19:49;;;;;;;2.72;1.30;;;19.40;73.40;;;;;;5025370;28;20059;-21
2023/07/19 05:22:15;;;;;;;2.53;1.40;;;19.50;73.60;;;;;;5018126;28;20395;-22
2023/07/19 05:24:40;;;;;;;2.88;1.50;;;19.50;73.60;;;;;;4993672;28;20036;-20
2023/07/19 05:27:06;;;;;;;2.00;1.40;;;19.60;73.70;;;;;;5029731;28;20046;-23
2023/07/19 05:29:33;;;;;;;2.13;1.20;;;19.60;73.50;;;;;;5025235;28;20195;-21
2023/07/19 05:31:59;;;;;;;3.20;1.50;;;19.70;73.60;;;;;;5064015;28;20731;-21
2023/07/19 05:34:24;;;;;;;2.10;1.30;;;19.80;73.60;;;;;;5047092;28;20128;-21
2023/07/19 05:36:50;;;;;;;2.17;1.23;;;19.80;73.60;;;;;;5032116;28;20028;-20
2023/07/19 05:39:16;;;;;;;3.20;1.30;;;19.90;73.60;;;;;;5004360;28;20446;-23
2023/07/19 05:41:41;;;;;;;2.70;1.20;;;20.00;73.80;;;;;;5013381;28;20318;-20
2023/07/19 05:44:08;;;;;;;2.10;1.30;;;20.00;73.50;;;;;;5033831;28;20029;-20
2023/07/19 05:46:36;;;;;;;1.60;1.13;;;20.10;73.50;;;;;;5027805;28;20453;-21
2023/07/19 05:49:02;;;;;;;3.13;1.30;;;20.10;73.50;;;;;;5035830;28;20048;-20
2023/07/19 05:51:28;;;;;;;4.40;1.40;;;20.20;73.20;;;;;;5014347;28;20033;-20
2023/07/19 05:53:54;;;;;;;1.73;1.33;;;20.30;73.30;;;;;;5027466;28;20055;-21
2023/07/19 05:56:21;;;;;;;3.60;1.20;;;20.30;73.10;;;;;;5003851;28;20564;-22
2023/07/19 05:58:47;;;;;;;1.70;1.30;;;20.40;73.20;;;;;;5033041;28;20398;-20
2023/07/19 06:01:17;;;;;;;3.17;1.30;;;20.40;73.00;;;;;;5030883;28;20029;-22
2023/07/19 06:03:43;;;;;;;2.75;1.30;;;20.50;73.10;;;;;;5029298;28;20226;-21
2023/07/19 06:06:09;;;;;;;2.15;1.40;;;20.50;73.10;;;;;;5012529;28;20430;-21
2023/07/19 06:08:35;;;;;;;2.00;1.10;;;20.60;73.00;;;;;;5016090;28;20018;-19
2023/07/19 06:11:00;;;;;;;3.20;1.40;;;20.60;73.00;;;;;;5031132;28;20279;-23
2023/07/19 06:13:26;;;;;;;2.58;1.38;;;20.70;72.90;;;;;;5027296;28;20577;-21
2023/07/19 06:15:52;;;;;;;2.07;1.10;;;20.70;72.70;;;;;;5026870;28;20119;-21
2023/07/19 06:18:18;;;;;;;2.50;1.20;;;20.80;72.70;;;;;;5023503;28;20052;-22
2023/07/19 06:20:43;;;;;;;3.10;1.50;;;20.90;72.80;;;;;;5025158;28;20519;-22
2023/07/19 06:23:09;;;;;;;2.75;1.27;;;20.90;72.80;;;;;;5015174;28;20033;-21
2023/07/19 06:25:35;;;;;;;2.07;1.20;;;21.00;73.00;;;;;;5015515;28;20576;-23
2023/07/19 06:28:02;;;;;;;1.92;1.20;;;21.00;72.90;;;;;;5001459;28;20060;-24
2023/07/19 06:30:28;;;;;;;2.35;1.17;;;21.10;72.70;;;;;;5022166;28;20029;-20
2023/07/19 06:32:54;;;;;;;2.40;1.20;;;21.20;72.60;;;;;;5027452;28;25502;-21
2023/07/19 06:35:19;;;;;;;2.92;1.30;;;21.30;72.50;;;;;;5008480;28;20044;-24
2023/07/19 06:37:45;;;;;;;2.38;1.20;;;21.30;72.40;;;;;;5011747;28;20444;-20
2023/07/19 06:40:11;;;;;;;1.90;1.13;;;21.30;72.20;;;;;;5022227;28;20068;-21
2023/07/19 06:42:37;;;;;;;2.50;1.20;;;21.40;72.20;;;;;;4994095;28;20935;-21
2023/07/19 06:45:03;;;;;;;1.53;1.13;;;21.40;72.20;;;;;;5029505;28;20094;-20
2023/07/19 06:47:29;;;;;;;2.40;1.30;;;21.50;72.10;;;;;;5020168;28;20030;-20
2023/07/19 06:49:56;;;;;;;1.93;1.20;;;21.50;72.00;;;;;;5026680;28;20021;-23
2023/07/19 06:52:23;;;;;;;2.17;1.10;;;21.50;72.00;;;;;;5024693;28;20187;-26
2023/07/19 06:54:49;;;;;;;1.95;1.20;;;21.60;72.00;;;;;;5009512;28;20033;-19
2023/07/19 06:57:14;;;;;;;2.55;1.10;;;21.60;72.00;;;;;;5022925;28;20074;-24
2023/07/19 06:59:40;;;;;;;2.57;1.30;;;21.70;71.90;;;;;;4995124;28;20124;-20
2023/07/19 07:02:06;;;;;;;2.15;1.05;;;21.70;71.70;;;;;;5010516;28;20578;-22
2023/07/19 07:04:32;;;;;;;2.23;1.00;;;21.80;71.60;;;;;;5030901;28;20033;-20
2023/07/19 07:06:58;;;;;;;2.28;1.20;;;21.80;71.50;;;;;;5027372;28;20356;-21
2023/07/19 07:09:23;;;;;;;3.42;1.38;;;21.80;71.30;;;;;;5013215;28;21132;-22
2023/07/19 07:11:49;;;;;;;2.57;1.30;;;21.90;71.20;;;;;;5021493;28;20086;-21
2023/07/19 07:14:15;;;;;;;1.92;1.02;;;21.90;71.00;;;;;;4999503;28;20766;-20
2023/07/19 07:16:41;;;;;;;2.93;1.00;;;22.00;71.00;;;;;;5032089;28;20029;-23
2023/07/19 07:19:07;;;;;;;2.67;1.00;;;22.00;71.00;;;;;;5030191;28;22031;-20
2023/07/19 07:21:33;;;;;;;2.03;1.20;;;22.10;70.90;;;;;;5028881;28;20070;-20
2023/07/19 07:23:59;;;;;;;2.30;1.10;;;22.20;70.80;;;;;;5029271;28;20960;-20
2023/07/19 07:26:25;;;;;;;2.35;1.00;;;22.30;70.80;;;;;;5022637;28;20788;-21
2023/07/19 07:28:51;;;;;;;4.28;1.13;;;22.30;70.80;;;;;;5029298;28;20021;-20
2023/07/19 07:31:17;;;;;;;1.97;1.07;;;22.40;70.90;;;;;;4999726;28;20023;-20
2023/07/19 07:33:42;;;;;;;2.33;1.02;;;22.50;71.30;;;;;;5011581;28;20475;-20
2023/07/19 07:36:08;;;;;;;2.13;1.10;;;22.70;71.30;;;;;;5031989;28;20091;-21
2023/07/19 07:38:34;;;;;;;3.07;1.13;;;22.80;70.90;;;;;;5028345;28;20718;-21
2023/07/19 07:41:01;;;;;;;2.80;1.00;;;22.90;70.50;;;;;;5005644;28;20136;-22
2023/07/19 07:43:30;;;;;;;2.38;1.20;;;23.00;70.40;;;;;;5017595;28;20025;-22
2023/07/19 07:45:56;;;;;;;2.42;1.02;;;23.10;70.00;;;;;;4997828;28;20430;-21
2023/07/19 07:48:23;;;;;;;2.60;1.20;;;23.20;69.80;;;;;;5024929;28;20030;-21
2023/07/19 07:50:51;;;;;;;2.35;1.10;;;23.30;70.40;;;;;;5008780;28;20594;-20
2023/07/19 07:53:21;;;;;;;1.83;1.15;;;23.30;69.50;;;;;;5025972;28;20608;-20
2023/07/19 07:55:48;;;;;;;2.83;1.00;;;23.40;69.40;;;;;;5012614;28;20157;-20
2023/07/19 07:58:14;;;;;;;1.73;1.08;;;23.50;69.80;;;;;;5024776;28;20602;-22
2023/07/19 08:00:41;;;;;;;2.13;1.00;;;23.70;69.90;;;;;;4986531;28;20246;-20
2023/07/19 08:03:07;;;;;;;2.22;0.90;;;23.80;69.80;;;;;;5013060;28;20340;-22
2023/07/19 08:05:33;;;;;;;2.22;0.90;;;23.90;69.40;;;;;;5017395;28;20025;-21
2023/07/19 08:07:59;;;;;;;2.30;1.07;;;24.00;69.10;;;;;;5021084;28;20357;-20
2023/07/19 08:10:25;;;;;;;2.10;0.95;;;24.10;69.00;;;;;;5009594;28;20048;-21
2023/07/19 08:12:50;;;;;;;1.37;0.90;;;24.20;69.50;;;;;;5009239;28;20412;-21
2023/07/19 08:15:16;;;;;;;2.60;0.98;;;24.50;70.70;;;;;;5028259;28;20442;-20
2023/07/19 08:17:42;;;;;;;1.90;0.98;;;24.80;71.90;;;;;;4996815;28;20127;-22
2023/07/19 08:20:09;;;;;;;3.33;1.10;;;25.30;72.70;;;;;;5024046;28;20029;-24
2023/07/19 08:22:36;;;;;;;2.75;1.15;;;25.80;72.80;;;;;;5017755;28;20639;-23
2023/07/19 08:25:02;;;;;;;1.90;1.20;;;26.30;72.20;;;;;;5024024;28;20033;-20
2023/07/19 08:27:27;;;;;;;1.20;0.90;;;26.80;70.60;;;;;;5042562;28;20510;-21
2023/07/19 08:29:53;;;;;;;2.20;0.90;;;27.10;68.50;;;;;;5028264;28;20048;-19
2023/07/19 08:32:19;;;;;;;2.33;0.90;;;27.30;66.90;;;;;;5025626;28;20120;-23
2023/07/19 08:34:45;;;;;;;3.90;1.00;;;27.40;65.90;;;;;;5003708;28;20351;-20
2023/07/19 08:37:11;;;;;;;2.20;1.00;;;27.50;66.10;;;;;;5020335;28;20478;-20
2023/07/19 08:39:37;;;;;;;1.80;1.00;;;27.70;67.10;;;;;;5024722;28;20711;-20
2023/07/19 08:42:03;;;;;;;2.40;1.13;;;27.90;66.30;;;;;;5033427;28;20123;-21
2023/07/19 08:44:29;;;;;;;1.95;1.10;;;28.20;66.30;;;;;;5023630;28;20306;-22
2023/07/19 08:46:56;;;;;;;2.38;1.20;;;28.50;66.00;;;;;;5034022;28;20025;-21
2023/07/19 08:49:21;;;;;;;1.20;1.10;;;28.80;65.40;;;;;;4998397;28;20098;-20
2023/07/19 08:51:48;;;;;;;3.03;1.10;;;29.10;64.80;;;;;;5029384;28;20029;-20
2023/07/19 08:54:13;;;;;;;2.75;1.10;;;29.40;64.00;;;;;;5021888;28;20502;-23
2023/07/19 08:56:41;;;;;;;1.80;1.08;;;29.70;63.80;;;;;;5031989;28;20029;-20
2023/07/19 08:59:08;;;;;;;1.80;1.20;;;30.00;62.20;;;;;;5018913;28;20025;-21
2023/07/19 09:01:34;;;;;;;1.77;1.00;;;30.20;61.50;;;;;;5017575;28;20740;-20
2023/07/19 09:04:00;;;;;;;3.90;1.00;;;30.30;60.50;;;;;;5014931;28;20029;-23
2023/07/19 09:06:28;;;;;;;2.70;1.10;;;30.50;59.80;;;;;;5021151;28;21598;-23
2023/07/19 09:08:55;;;;;;;1.58;1.00;;;30.50;58.40;;;;;;5027254;28;20061;-21
2023/07/19 09:11:22;;;;;;;1.65;0.88;;;30.50;58.90;;;;;;5029428;28;20665;-21
2023/07/19 09:13:56;;;;;;;1.60;1.10;;;30.50;57.40;;;;;;5022554;28;20112;-20
2023/07/19 09:16:29;;;;;;;1.70;1.08;;;30.50;56.90;;;;;;5023936;28;20039;-21
2023/07/19 09:19:00;;;;;;;1.80;1.13;;;30.60;57.10;;;;;;5033190;28;20114;-20
2023/07/19 09:21:32;;;;;;;2.25;1.20;;;30.70;58.10;;;;;;4996547;28;20155;-21
2023/07/19 09:24:02;;;;;;;2.15;1.05;;;30.90;57.90;;;;;;5031446;28;20614;-20
2023/07/19 09:26:28;;;;;;;1.67;1.00;;;31.10;59.00;;;;;;5049251;28;20756;-20
2023/07/19 09:28:55;;;;;;;3.38;1.00;;;31.40;57.30;;;;;;5017922;28;20029;-21
2023/07/19 09:31:22;;;;;;;1.90;1.20;;;31.50;56.30;;;;;;5030682;28;20871;-20
2023/07/19 09:33:48;;;;;;;2.20;1.00;;;31.60;56.60;;;;;;5036579;28;20041;-21
2023/07/19 09:36:19;;;;;;;1.70;1.02;;;31.70;55.50;;;;;;5003621;28;20083;-25
2023/07/19 09:38:45;;;;;;;1.92;1.10;;;31.70;54.70;;;;;;5012592;28;20106;-20
2023/07/19 09:41:11;;;;;;;1.73;0.98;;;31.60;55.00;;;;;;5013845;28;20013;-21
2023/07/19 09:43:38;;;;;;;1.33;0.93;;;31.70;54.80;;;;;;5034547;28;20039;-20
2023/07/19 09:46:04;;;;;;;1.93;0.80;;;31.70;54.10;;;;;;5021860;28;20032;-21
2023/07/19 09:48:30;;;;;;;1.92;0.90;;;31.60;53.40;;;;;;5028533;28;20774;-20
2023/07/19 09:51:03;;;;;;;1.92;0.90;;;31.50;52.70;;;;;;5013675;28;20121;-22
2023/07/19 09:53:30;;;;;;;2.40;0.95;;;31.20;51.90;;;;;;5017377;28;20033;-20
2023/07/19 09:55:56;;;;;;;1.35;0.90;;;31.00;52.30;;;;;;5001394;28;20040;-20
2023/07/19 09:58:23;;;;;;;2.13;0.90;;;30.80;52.10;;;;;;5011294;28;20033;-19
2023/07/19 10:00:50;;;;;;;2.13;1.02;;;30.50;52.00;;;;;;5015428;28;20426;-20
2023/07/19 10:03:20;;;;;;;1.70;1.00;;;30.30;52.00;;;;;;5031030;28;20038;-20
2023/07/19 10:05:58;;;;;;;2.00;1.00;;;30.00;51.80;;;;;;5023302;28;20018;-21
2023/07/19 10:08:24;;;;;;;2.30;0.90;;;29.80;52.10;;;;;;5019140;28;20259;-23
2023/07/19 10:10:57;;;;;;;2.17;0.90;;;29.60;53.30;;;;;;5006373;28;20570;-24
2023/07/19 10:13:29;;;;;;;1.30;0.80;;;29.60;53.90;;;;;;5022304;28;20063;-21
2023/07/19 10:15:54;;;;;;;1.98;0.90;;;29.70;54.00;;;;;;5018117;28;20025;-22
2023/07/19 10:18:20;;;;;;;2.77;1.00;;;29.80;54.60;;;;;;5031580;28;20040;-21
2023/07/19 10:21:03;;;;;;;3.85;1.00;;;29.90;54.90;;;;;;5031574;28;20044;-21
2023/07/19 10:23:30;;;;;;;1.63;0.90;;;30.10;54.20;;;;;;4998641;28;20506;-21
2023/07/19 10:25:57;;;;;;;1.42;0.90;;;30.40;55.70;;;;;;5016680;28;20104;-22
2023/07/19 10:28:29;;;;;;;1.63;0.93;;;30.60;55.40;;;;;;5008722;28;20032;-21
2023/07/19 10:31:00;;;;;;;1.20;0.70;;;30.90;54.30;;;;;;4997899;28;20104;-21
2023/07/19 10:33:30;;;;;;;1.45;0.80;;;31.10;53.20;;;;;;5027251;28;20741;-20
2023/07/19 10:36:08;;;;;;;2.05;0.73;;;31.10;51.90;;;;;;5010832;28;20041;-20
2023/07/19 10:38:35;;;;;;;0.85;0.70;;;30.90;51.20;;;;;;4991492;28;20049;-21
2023/07/19 10:41:07;;;;;;;1.65;0.88;;;30.60;50.60;;;;;;5022119;28;20408;-19
2023/07/19 10:43:34;;;;;;;2.00;0.70;;;30.30;50.40;;;;;;5016554;28;20034;-21
2023/07/19 10:46:03;;;;;;;1.00;0.73;;;29.80;50.40;;;;;;5018495;28;20288;-20
2023/07/19 10:48:33;;;;;;;0.80;0.70;;;29.30;50.50;;;;;;5012138;28;20025;-21
2023/07/19 10:51:00;;;;;;;1.30;0.73;;;28.90;50.90;;;;;;5025669;28;20388;-21
2023/07/19 10:53:27;;;;;;;1.40;0.70;;;28.40;51.50;;;;;;5020465;28;20118;-21
2023/07/19 10:55:58;;;;;;;0.77;0.70;;;28.10;52.10;;;;;;5007923;28;20518;-22
2023/07/19 10:58:24;;;;;;;0.70;0.70;;;27.80;53.00;;;;;;5018111;28;20068;-21
2023/07/19 11:00:56;;;;;;;0.65;0.52;;;27.70;53.80;;;;;;5012724;28;20185;-21
2023/07/19 11:03:26;;;;;;;0.63;0.50;;;27.60;54.40;;;;;;5029006;28;20033;-21
2023/07/19 11:05:53;;;;;;;0.73;0.60;;;27.60;54.50;;;;;;5008753;28;20223;-20
2023/07/19 11:08:22;;;;;;;0.50;0.50;;;27.60;54.90;;;;;;5023225;28;20056;-23
2023/07/19 11:10:52;;;;;;;0.40;0.40;;;27.80;55.20;;;;;;5001907;28;20128;-22
2023/07/19 11:13:20;;;;;;;1.13;0.70;;;27.90;55.20;;;;;;5017180;28;20372;-20
2023/07/19 11:15:51;;;;;;;0.65;0.43;;;28.00;55.20;;;;;;5057897;28;20038;-21
2023/07/19 11:18:37;;;;;;;0.88;0.60;;;28.10;55.40;;;;;;5011174;28;20071;-21
2023/07/19 11:21:03;;;;;;;0.67;0.60;;;28.30;55.10;;;;;;5025138;28;20834;-21
2023/07/19 11:23:30;;;;;;;0.52;0.52;;;28.50;56.30;;;;;;5028777;28;20029;-20
2023/07/19 11:26:10;;;;;;;0.70;0.70;;;28.90;57.20;;;;;;4999895;28;20139;-21
2023/07/19 11:28:41;;;;;;;1.30;0.70;;;29.40;56.70;;;;;;5047938;28;20448;-22
2023/07/19 11:31:07;;;;;;;0.70;0.70;;;29.80;57.10;;;;;;5018649;28;20025;-22
2023/07/19 11:33:34;;;;;;;1.03;0.60;;;30.20;56.20;;;;;;5016091;28;20185;-20
2023/07/19 11:36:05;;;;;;;1.67;0.80;;;30.50;55.40;;;;;;5016179;28;20589;-22
2023/07/19 11:38:33;;;;;;;0.60;0.60;;;30.70;54.20;;;;;;5025068;28;20060;-20
2023/07/19 11:40:58;;;;;;;1.75;0.65;;;30.80;53.40;;;;;;4986550;28;20029;-22
2023/07/19 11:43:25;;;;;;;0.70;0.70;;;30.80;53.00;;;;;;5027971;28;20021;-23
2023/07/19 11:45:51;;;;;;;0.70;0.70;;;30.80;52.90;;;;;;5015893;28;20029;-21
2023/07/19 11:48:17;;;;;;;0.80;0.80;;;30.80;53.40;;;;;;5013881;28;20032;-21
2023/07/19 11:50:43;;;;;;;0.77;0.67;;;30.90;53.60;;;;;;5035058;28;20506;-22
2023/07/19 11:53:12;;;;;;;1.00;0.80;;;31.00;53.20;;;;;;5057232;28;20037;-22
2023/07/19 11:55:38;;;;;;;1.17;0.70;;;31.20;52.20;;;;;;5015758;28;20037;-21
2023/07/19 11:58:03;;;;;;;1.03;0.90;;;31.40;53.10;;;;;;4992809;28;20156;-22
2023/07/19 12:00:31;;;;;;;1.23;0.75;;;31.50;53.30;;;;;;5025502;28;20246;-20
2023/07/19 12:02:57;;;;;;;1.52;1.00;;;31.80;53.20;;;;;;5033036;28;20399;-21
2023/07/19 12:05:25;;;;;;;1.83;0.90;;;32.10;53.40;;;;;;5041902;28;20132;-21
2023/07/19 12:07:51;;;;;;;1.00;0.90;;;32.30;52.40;;;;;;5013481;28;20025;-21
2023/07/19 12:10:22;;;;;;;1.33;0.90;;;32.30;51.00;;;;;;5033371;28;20033;-20
2023/07/19 12:12:48;;;;;;;0.95;0.80;;;32.20;49.40;;;;;;5026122;28;20449;-22
2023/07/19 12:15:14;;;;;;;1.23;0.80;;;31.90;48.60;;;;;;5029498;28;20030;-20
2023/07/19 12:17:40;;;;;;;1.33;0.90;;;31.60;48.10;;;;;;5026355;28;20025;-21
2023/07/19 12:20:08;;;;;;;1.60;0.80;;;31.20;47.90;;;;;;5048480;28;20034;-21
2023/07/19 12:22:40;;;;;;;1.52;0.85;;;30.80;47.90;;;;;;5041288;28;20468;-20
2023/07/19 12:25:06;;;;;;;1.38;0.70;;;30.40;47.80;;;;;;5024082;28;20044;-21
2023/07/19 12:27:33;;;;;;;1.50;0.95;;;30.10;48.60;;;;;;5005825;28;20028;-21
2023/07/19 12:30:02;;;;;;;1.60;0.80;;;29.90;49.10;;;;;;5028503;28;20219;-21
2023/07/19 12:32:28;;;;;;;1.45;0.88;;;29.70;49.30;;;;;;5021821;28;20338;-21
2023/07/19 12:34:55;;;;;;;1.92;1.02;;;29.50;49.60;;;;;;5030650;28;20792;-21
2023/07/19 12:37:21;;;;;;;2.13;1.00;;;29.40;50.00;;;;;;5028461;28;20760;-21
2023/07/19 12:39:48;;;;;;;1.30;0.90;;;29.30;50.00;;;;;;5030223;28;20021;-21
2023/07/19 12:42:14;;;;;;;1.40;0.90;;;29.30;50.30;;;;;;5027074;28;20052;-20
2023/07/19 12:44:41;;;;;;;1.33;0.90;;;29.10;50.00;;;;;;5022476;28;20112;-20